sensor_id;sensor_type;location;lat;lon;timestamp;pressure;altitude;pressure_sealevel;temperature;humidity
64628;BME280;59036;50.960;0.314;2022-10-16T00:01:07;99005.50;;;11.08;73.07
64628;BME280;59036;50.960;0.314;2022-10-16T00:03:35;99010.11;;;11.26;72.16
64628;BME280;59036;50.960;0.314;2022-10-16T00:06:03;99015.62;;;11.25;72.12
64628;BME280;59036;50.960;0.314;2022-10-16T00:08:31;99009.79;;;10.82;72.56
64628;BME280;59036;50.960;0.314;2022-10-16T00:11:02;99010.36;;;10.96;71.91
64628;BME280;59036;50.960;0.314;2022-10-16T00:13:30;99005.22;;;11.20;71.46
64628;BME280;59036;50.960;0.314;2022-10-16T00:15:58;99008.77;;;11.12;72.33
64628;BME280;59036;50.960;0.314;2022-10-16T00:18:27;99012.10;;;10.83;73.09
64628;BME280;59036;50.960;0.314;2022-10-16T00:20:54;99010.10;;;10.60;73.65
64628;BME280;59036;50.960;0.314;2022-10-16T00:23:22;99016.14;;;10.94;73.09
64628;BME280;59036;50.960;0.314;2022-10-16T00:25:55;99017.20;;;10.90;73.47
64628;BME280;59036;50.960;0.314;2022-10-16T00:28:22;99015.89;;;11.20;71.53
64628;BME280;59036;50.960;0.314;2022-10-16T00:30:55;99012.05;;;11.49;70.63
64628;BME280;59036;50.960;0.314;2022-10-16T00:33:24;99017.70;;;11.85;69.44
64628;BME280;59036;50.960;0.314;2022-10-16T00:35:51;99028.51;;;11.95;69.09
64628;BME280;59036;50.960;0.314;2022-10-16T00:38:18;99037.27;;;10.98;73.03
64628;BME280;59036;50.960;0.314;2022-10-16T00:40:51;99042.62;;;10.04;78.39
64628;BME280;59036;50.960;0.314;2022-10-16T00:43:35;99056.77;;;9.96;82.46
64628;BME280;59036;50.960;0.314;2022-10-16T00:46:09;99065.00;;;9.08;87.37
64628;BME280;59036;50.960;0.314;2022-10-16T00:48:38;99055.33;;;9.40;88.14
64628;BME280;59036;50.960;0.314;2022-10-16T00:51:07;99044.20;;;9.50;88.18
64628;BME280;59036;50.960;0.314;2022-10-16T00:53:35;99040.02;;;9.02;88.93
64628;BME280;59036;50.960;0.314;2022-10-16T00:56:04;99053.85;;;8.82;89.22
64628;BME280;59036;50.960;0.314;2022-10-16T00:58:32;99059.92;;;9.11;88.20
64628;BME280;59036;50.960;0.314;2022-10-16T01:00:59;99054.78;;;8.77;90.19
64628;BME280;59036;50.960;0.314;2022-10-16T01:03:30;99056.36;;;8.50;90.60
64628;BME280;59036;50.960;0.314;2022-10-16T01:06:07;99055.45;;;8.58;90.17
64628;BME280;59036;50.960;0.314;2022-10-16T01:08:45;99061.19;;;8.68;89.63
64628;BME280;59036;50.960;0.314;2022-10-16T01:11:19;99068.96;;;8.81;89.09
64628;BME280;59036;50.960;0.314;2022-10-16T01:13:54;99073.80;;;8.94;88.32
64628;BME280;59036;50.960;0.314;2022-10-16T01:16:29;99068.95;;;9.63;86.48
64628;BME280;59036;50.960;0.314;2022-10-16T01:19:04;99065.26;;;9.71;85.27
64628;BME280;59036;50.960;0.314;2022-10-16T01:21:39;99058.51;;;11.08;79.70
64628;BME280;59036;50.960;0.314;2022-10-16T01:24:12;99056.15;;;10.04;81.71
64628;BME280;59036;50.960;0.314;2022-10-16T01:26:59;99062.00;;;10.49;79.83
64628;BME280;59036;50.960;0.314;2022-10-16T01:29:31;99060.11;;;10.07;82.80
64628;BME280;59036;50.960;0.314;2022-10-16T01:32:08;99064.33;;;10.17;84.33
64628;BME280;59036;50.960;0.314;2022-10-16T01:34:41;99065.26;;;10.11;84.84
64628;BME280;59036;50.960;0.314;2022-10-16T01:37:14;99066.01;;;9.91;84.93
64628;BME280;59036;50.960;0.314;2022-10-16T01:39:45;99066.42;;;9.82;85.20
64628;BME280;59036;50.960;0.314;2022-10-16T01:42:16;99068.91;;;9.97;85.38
64628;BME280;59036;50.960;0.314;2022-10-16T01:44:47;99070.97;;;10.34;85.05
64628;BME280;59036;50.960;0.314;2022-10-16T01:47:15;99070.37;;;10.09;84.34
64628;BME280;59036;50.960;0.314;2022-10-16T01:49:45;99071.34;;;10.59;82.36
64628;BME280;59036;50.960;0.314;2022-10-16T01:52:16;99062.40;;;10.51;82.07
64628;BME280;59036;50.960;0.314;2022-10-16T01:54:46;99063.99;;;10.69;81.23
64628;BME280;59036;50.960;0.314;2022-10-16T01:57:15;99062.44;;;10.47;81.55
64628;BME280;59036;50.960;0.314;2022-10-16T01:59:46;99066.17;;;9.98;84.29
64628;BME280;59036;50.960;0.314;2022-10-16T02:02:15;99070.59;;;9.16;87.34
64628;BME280;59036;50.960;0.314;2022-10-16T02:04:47;99075.73;;;9.42;85.43
64628;BME280;59036;50.960;0.314;2022-10-16T02:07:16;99077.87;;;9.11;87.21
64628;BME280;59036;50.960;0.314;2022-10-16T02:09:44;99073.69;;;9.36;86.87
64628;BME280;59036;50.960;0.314;2022-10-16T02:12:14;99078.08;;;9.20;87.55
64628;BME280;59036;50.960;0.314;2022-10-16T02:14:42;99080.54;;;9.79;84.44
64628;BME280;59036;50.960;0.314;2022-10-16T02:17:12;99079.71;;;9.22;84.81
64628;BME280;59036;50.960;0.314;2022-10-16T02:19:39;99080.85;;;9.29;84.39
64628;BME280;59036;50.960;0.314;2022-10-16T02:22:09;99083.01;;;10.12;81.00
64628;BME280;59036;50.960;0.314;2022-10-16T02:24:48;99089.92;;;9.20;82.81
64628;BME280;59036;50.960;0.314;2022-10-16T02:27:21;99092.28;;;8.84;84.08
64628;BME280;59036;50.960;0.314;2022-10-16T02:29:55;99096.89;;;8.90;85.36
64628;BME280;59036;50.960;0.314;2022-10-16T02:32:28;99093.02;;;9.01;84.02
64628;BME280;59036;50.960;0.314;2022-10-16T02:34:58;99098.13;;;9.36;83.17
64628;BME280;59036;50.960;0.314;2022-10-16T02:37:27;99101.36;;;9.88;82.01
64628;BME280;59036;50.960;0.314;2022-10-16T02:39:56;99104.26;;;9.69;81.49
64628;BME280;59036;50.960;0.314;2022-10-16T02:42:28;99110.31;;;9.61;81.10
64628;BME280;59036;50.960;0.314;2022-10-16T02:44:56;99123.52;;;9.22;82.79
64628;BME280;59036;50.960;0.314;2022-10-16T02:47:24;99135.03;;;9.26;84.06
64628;BME280;59036;50.960;0.314;2022-10-16T02:49:51;99134.85;;;9.20;83.90
64628;BME280;59036;50.960;0.314;2022-10-16T02:52:17;99141.27;;;9.22;84.17
64628;BME280;59036;50.960;0.314;2022-10-16T02:54:44;99137.35;;;8.91;84.89
64628;BME280;59036;50.960;0.314;2022-10-16T02:57:11;99144.78;;;9.48;83.02
64628;BME280;59036;50.960;0.314;2022-10-16T02:59:38;99138.63;;;9.97;81.38
64628;BME280;59036;50.960;0.314;2022-10-16T03:02:06;99140.26;;;9.89;81.28
64628;BME280;59036;50.960;0.314;2022-10-16T03:04:33;99147.98;;;9.17;83.65
64628;BME280;59036;50.960;0.314;2022-10-16T03:07:00;99147.91;;;8.38;84.40
64628;BME280;59036;50.960;0.314;2022-10-16T03:09:27;99149.49;;;8.87;81.52
64628;BME280;59036;50.960;0.314;2022-10-16T03:11:54;99150.27;;;8.51;81.13
64628;BME280;59036;50.960;0.314;2022-10-16T03:14:21;99156.99;;;8.49;81.35
64628;BME280;59036;50.960;0.314;2022-10-16T03:16:48;99169.14;;;8.38;80.95
64628;BME280;59036;50.960;0.314;2022-10-16T03:19:16;99174.72;;;8.53;80.48
64628;BME280;59036;50.960;0.314;2022-10-16T03:21:44;99176.74;;;8.93;79.48
64628;BME280;59036;50.960;0.314;2022-10-16T03:24:11;99180.03;;;9.14;78.04
64628;BME280;59036;50.960;0.314;2022-10-16T03:26:38;99179.85;;;9.26;77.37
64628;BME280;59036;50.960;0.314;2022-10-16T03:29:05;99172.99;;;9.85;75.12
64628;BME280;59036;50.960;0.314;2022-10-16T03:31:33;99169.13;;;9.27;76.37
64628;BME280;59036;50.960;0.314;2022-10-16T03:34:00;99167.66;;;9.97;73.73
64628;BME280;59036;50.960;0.314;2022-10-16T03:36:27;99174.52;;;9.60;73.28
64628;BME280;59036;50.960;0.314;2022-10-16T03:38:54;99183.17;;;8.60;77.59
64628;BME280;59036;50.960;0.314;2022-10-16T03:41:22;99182.83;;;9.68;74.50
64628;BME280;59036;50.960;0.314;2022-10-16T03:43:48;99181.14;;;9.94;72.85
64628;BME280;59036;50.960;0.314;2022-10-16T03:46:15;99193.13;;;9.30;74.38
64628;BME280;59036;50.960;0.314;2022-10-16T03:48:43;99193.46;;;8.39;76.80
64628;BME280;59036;50.960;0.314;2022-10-16T03:51:10;99192.11;;;8.36;77.86
64628;BME280;59036;50.960;0.314;2022-10-16T03:53:37;99194.19;;;9.69;74.54
64628;BME280;59036;50.960;0.314;2022-10-16T03:56:04;99198.12;;;10.33;72.33
64628;BME280;59036;50.960;0.314;2022-10-16T03:58:32;99200.80;;;10.01;73.64
64628;BME280;59036;50.960;0.314;2022-10-16T04:00:59;99206.54;;;9.63;74.16
64628;BME280;59036;50.960;0.314;2022-10-16T04:03:26;99201.83;;;9.89;71.90
64628;BME280;59036;50.960;0.314;2022-10-16T04:05:53;99211.53;;;9.88;73.52
64628;BME280;59036;50.960;0.314;2022-10-16T04:08:20;99208.49;;;10.11;73.40
64628;BME280;59036;50.960;0.314;2022-10-16T04:10:47;99208.44;;;9.70;74.16
64628;BME280;59036;50.960;0.314;2022-10-16T04:13:14;99212.02;;;9.65;74.62
64628;BME280;59036;50.960;0.314;2022-10-16T04:15:42;99210.90;;;10.10;72.49
64628;BME280;59036;50.960;0.314;2022-10-16T04:18:11;99215.93;;;10.69;70.64
64628;BME280;59036;50.960;0.314;2022-10-16T04:20:38;99217.09;;;11.03;69.87
64628;BME280;59036;50.960;0.314;2022-10-16T04:23:05;99217.40;;;10.84;69.76
64628;BME280;59036;50.960;0.314;2022-10-16T04:25:32;99220.64;;;10.45;71.49
64628;BME280;59036;50.960;0.314;2022-10-16T04:27:59;99222.10;;;11.75;67.86
64628;BME280;59036;50.960;0.314;2022-10-16T04:30:26;99228.01;;;10.88;69.52
64628;BME280;59036;50.960;0.314;2022-10-16T04:32:53;99229.44;;;10.88;68.62
64628;BME280;59036;50.960;0.314;2022-10-16T04:35:21;99234.42;;;11.20;68.97
64628;BME280;59036;50.960;0.314;2022-10-16T04:37:48;99238.74;;;10.47;70.38
64628;BME280;59036;50.960;0.314;2022-10-16T04:40:16;99239.39;;;11.33;68.67
64628;BME280;59036;50.960;0.314;2022-10-16T04:42:44;99246.06;;;10.48;69.74
64628;BME280;59036;50.960;0.314;2022-10-16T04:45:10;99252.32;;;8.82;77.06
64628;BME280;59036;50.960;0.314;2022-10-16T04:47:38;99259.14;;;8.89;76.46
64628;BME280;59036;50.960;0.314;2022-10-16T04:50:06;99261.50;;;9.31;74.57
64628;BME280;59036;50.960;0.314;2022-10-16T04:52:33;99262.98;;;9.68;75.01
64628;BME280;59036;50.960;0.314;2022-10-16T04:55:00;99264.05;;;8.73;76.80
64628;BME280;59036;50.960;0.314;2022-10-16T04:57:28;99268.47;;;8.88;77.43
64628;BME280;59036;50.960;0.314;2022-10-16T04:59:56;99271.97;;;8.86;77.88
64628;BME280;59036;50.960;0.314;2022-10-16T05:02:24;99274.63;;;8.06;80.54
64628;BME280;59036;50.960;0.314;2022-10-16T05:04:52;99273.23;;;8.36;78.75
64628;BME280;59036;50.960;0.314;2022-10-16T05:07:19;99275.32;;;8.61;78.54
64628;BME280;59036;50.960;0.314;2022-10-16T05:09:46;99281.02;;;8.66;79.07
64628;BME280;59036;50.960;0.314;2022-10-16T05:12:13;99283.57;;;9.80;74.47
64628;BME280;59036;50.960;0.314;2022-10-16T05:14:40;99289.79;;;9.72;74.82
64628;BME280;59036;50.960;0.314;2022-10-16T05:17:08;99295.29;;;9.16;75.38
64628;BME280;59036;50.960;0.314;2022-10-16T05:19:35;99299.90;;;9.34;75.77
64628;BME280;59036;50.960;0.314;2022-10-16T05:22:02;99300.11;;;9.03;76.51
64628;BME280;59036;50.960;0.314;2022-10-16T05:24:30;99308.35;;;9.49;75.38
64628;BME280;59036;50.960;0.314;2022-10-16T05:26:57;99312.07;;;8.81;76.88
64628;BME280;59036;50.960;0.314;2022-10-16T05:29:24;99314.43;;;8.94;76.98
64628;BME280;59036;50.960;0.314;2022-10-16T05:31:53;99319.76;;;10.02;73.63
64628;BME280;59036;50.960;0.314;2022-10-16T05:34:21;99325.22;;;8.93;76.19
64628;BME280;59036;50.960;0.314;2022-10-16T05:36:48;99328.84;;;8.68;77.57
64628;BME280;59036;50.960;0.314;2022-10-16T05:39:16;99332.89;;;9.06;76.88
64628;BME280;59036;50.960;0.314;2022-10-16T05:41:44;99337.79;;;8.47;78.59
64628;BME280;59036;50.960;0.314;2022-10-16T05:44:12;99337.15;;;8.94;76.18
64628;BME280;59036;50.960;0.314;2022-10-16T05:46:39;99338.43;;;9.97;72.41
64628;BME280;59036;50.960;0.314;2022-10-16T05:49:06;99340.98;;;10.85;69.19
64628;BME280;59036;50.960;0.314;2022-10-16T05:51:33;99339.09;;;10.04;69.64
64628;BME280;59036;50.960;0.314;2022-10-16T05:54:01;99340.66;;;11.15;67.11
64628;BME280;59036;50.960;0.314;2022-10-16T05:56:28;99341.44;;;11.90;65.33
64628;BME280;59036;50.960;0.314;2022-10-16T05:58:55;99343.09;;;10.84;67.17
64628;BME280;59036;50.960;0.314;2022-10-16T06:01:23;99352.01;;;11.30;66.73
64628;BME280;59036;50.960;0.314;2022-10-16T06:03:51;99354.26;;;11.02;67.56
64628;BME280;59036;50.960;0.314;2022-10-16T06:06:20;99361.28;;;9.95;70.58
64628;BME280;59036;50.960;0.314;2022-10-16T06:08:48;99361.73;;;10.34;69.41
64628;BME280;59036;50.960;0.314;2022-10-16T06:11:18;99367.58;;;10.60;69.12
64628;BME280;59036;50.960;0.314;2022-10-16T06:13:49;99372.71;;;10.32;69.31
64628;BME280;59036;50.960;0.314;2022-10-16T06:16:17;99370.01;;;9.96;70.96
64628;BME280;59036;50.960;0.314;2022-10-16T06:18:44;99371.38;;;11.22;67.69
64628;BME280;59036;50.960;0.314;2022-10-16T06:21:13;99372.03;;;10.99;66.90
64628;BME280;59036;50.960;0.314;2022-10-16T06:23:40;99372.40;;;10.83;68.69
64628;BME280;59036;50.960;0.314;2022-10-16T06:26:10;99377.00;;;10.02;69.64
64628;BME280;59036;50.960;0.314;2022-10-16T06:28:38;99380.79;;;10.58;68.90
64628;BME280;59036;50.960;0.314;2022-10-16T06:31:07;99382.76;;;9.89;70.86
64628;BME280;59036;50.960;0.314;2022-10-16T06:33:35;99385.46;;;10.09;71.10
64628;BME280;59036;50.960;0.314;2022-10-16T06:36:04;99390.50;;;9.24;72.93
64628;BME280;59036;50.960;0.314;2022-10-16T06:38:32;99389.28;;;10.12;71.02
64628;BME280;59036;50.960;0.314;2022-10-16T06:40:59;99390.88;;;10.35;70.70
64628;BME280;59036;50.960;0.314;2022-10-16T06:43:28;99395.80;;;10.12;70.31
64628;BME280;59036;50.960;0.314;2022-10-16T06:45:56;99399.03;;;11.23;68.89
64628;BME280;59036;50.960;0.314;2022-10-16T06:48:24;99401.21;;;11.18;67.57
64628;BME280;59036;50.960;0.314;2022-10-16T06:50:56;99401.51;;;12.36;64.32
64628;BME280;59036;50.960;0.314;2022-10-16T06:53:24;99402.36;;;12.66;62.94
64628;BME280;59036;50.960;0.314;2022-10-16T06:55:51;99409.18;;;11.98;63.95
64628;BME280;59036;50.960;0.314;2022-10-16T06:58:18;99409.82;;;12.88;61.94
64628;BME280;59036;50.960;0.314;2022-10-16T07:00:45;99416.86;;;12.46;63.00
64628;BME280;59036;50.960;0.314;2022-10-16T07:03:14;99422.25;;;12.49;62.30
64628;BME280;59036;50.960;0.314;2022-10-16T07:05:41;99426.99;;;12.46;62.45
64628;BME280;59036;50.960;0.314;2022-10-16T07:08:09;99426.98;;;12.95;61.15
64628;BME280;59036;50.960;0.314;2022-10-16T07:10:36;99434.37;;;11.43;64.28
64628;BME280;59036;50.960;0.314;2022-10-16T07:13:03;99433.69;;;12.92;61.35
64628;BME280;59036;50.960;0.314;2022-10-16T07:15:30;99435.00;;;13.46;59.91
64628;BME280;59036;50.960;0.314;2022-10-16T07:17:58;99432.43;;;13.92;58.81
64628;BME280;59036;50.960;0.314;2022-10-16T07:20:26;99438.51;;;12.53;61.66
64628;BME280;59036;50.960;0.314;2022-10-16T07:22:53;99440.82;;;11.93;63.35
64628;BME280;59036;50.960;0.314;2022-10-16T07:25:20;99442.66;;;11.32;65.77
64628;BME280;59036;50.960;0.314;2022-10-16T07:27:47;99445.01;;;10.51;68.69
64628;BME280;59036;50.960;0.314;2022-10-16T07:30:14;99446.33;;;11.52;65.50
64628;BME280;59036;50.960;0.314;2022-10-16T07:32:42;99447.60;;;11.68;65.87
64628;BME280;59036;50.960;0.314;2022-10-16T07:35:09;99453.31;;;12.26;63.57
64628;BME280;59036;50.960;0.314;2022-10-16T07:37:36;99460.15;;;12.01;64.60
64628;BME280;59036;50.960;0.314;2022-10-16T07:40:04;99467.36;;;11.89;64.74
64628;BME280;59036;50.960;0.314;2022-10-16T07:42:31;99473.07;;;12.87;62.59
64628;BME280;59036;50.960;0.314;2022-10-16T07:45:04;99477.73;;;13.15;61.56
64628;BME280;59036;50.960;0.314;2022-10-16T07:47:32;99481.41;;;13.75;60.24
64628;BME280;59036;50.960;0.314;2022-10-16T07:49:59;99481.83;;;14.54;58.34
64628;BME280;59036;50.960;0.314;2022-10-16T07:52:26;99486.07;;;14.48;57.90
64628;BME280;59036;50.960;0.314;2022-10-16T07:54:52;99489.17;;;15.13;56.66
64628;BME280;59036;50.960;0.314;2022-10-16T07:57:20;99493.08;;;14.25;59.13
64628;BME280;59036;50.960;0.314;2022-10-16T07:59:47;99496.79;;;14.86;56.80
64628;BME280;59036;50.960;0.314;2022-10-16T08:02:14;99502.14;;;14.67;57.45
64628;BME280;59036;50.960;0.314;2022-10-16T08:04:41;99503.83;;;14.38;57.25
64628;BME280;59036;50.960;0.314;2022-10-16T08:07:08;99504.66;;;14.20;58.40
64628;BME280;59036;50.960;0.314;2022-10-16T08:09:35;99512.26;;;12.71;62.07
64628;BME280;59036;50.960;0.314;2022-10-16T08:12:02;99509.25;;;13.62;59.69
64628;BME280;59036;50.960;0.314;2022-10-16T08:14:29;99509.72;;;14.77;57.79
64628;BME280;59036;50.960;0.314;2022-10-16T08:16:56;99514.13;;;13.75;59.92
64628;BME280;59036;50.960;0.314;2022-10-16T08:19:23;99512.19;;;13.84;59.83
64628;BME280;59036;50.960;0.314;2022-10-16T08:21:50;99511.38;;;14.89;58.10
64628;BME280;59036;50.960;0.314;2022-10-16T08:24:17;99521.29;;;13.32;61.08
64628;BME280;59036;50.960;0.314;2022-10-16T08:26:44;99516.69;;;14.96;56.89
64628;BME280;59036;50.960;0.314;2022-10-16T08:29:12;99517.68;;;15.29;56.42
64628;BME280;59036;50.960;0.314;2022-10-16T08:31:40;99521.63;;;14.18;58.12
64628;BME280;59036;50.960;0.314;2022-10-16T08:34:07;99524.04;;;13.89;57.99
64628;BME280;59036;50.960;0.314;2022-10-16T08:36:34;99529.74;;;13.44;58.90
64628;BME280;59036;50.960;0.314;2022-10-16T08:39:01;99541.03;;;12.38;61.44
64628;BME280;59036;50.960;0.314;2022-10-16T08:42:46;99543.11;;;13.51;60.83
64628;BME280;59036;50.960;0.314;2022-10-16T08:45:21;99535.68;;;14.83;57.44
64628;BME280;59036;50.960;0.314;2022-10-16T08:48:00;99539.29;;;14.95;57.98
64628;BME280;59036;50.960;0.314;2022-10-16T08:50:32;99542.10;;;14.84;59.18
64628;BME280;59036;50.960;0.314;2022-10-16T08:53:04;99546.80;;;14.77;59.24
64628;BME280;59036;50.960;0.314;2022-10-16T08:55:37;99550.88;;;14.31;58.52
64628;BME280;59036;50.960;0.314;2022-10-16T08:58:12;99551.94;;;12.92;59.13
64628;BME280;59036;50.960;0.314;2022-10-16T09:00:40;99555.10;;;13.69;58.35
64628;BME280;59036;50.960;0.314;2022-10-16T09:03:17;99555.51;;;14.96;56.80
64628;BME280;59036;50.960;0.314;2022-10-16T09:05:56;99558.90;;;14.17;56.27
64628;BME280;59036;50.960;0.314;2022-10-16T09:08:34;99558.19;;;14.95;55.62
64628;BME280;59036;50.960;0.314;2022-10-16T09:11:11;99554.74;;;14.12;56.01
64628;BME280;59036;50.960;0.314;2022-10-16T09:13:48;99558.20;;;13.87;56.05
64628;BME280;59036;50.960;0.314;2022-10-16T09:16:22;99555.34;;;14.83;54.79
64628;BME280;59036;50.960;0.314;2022-10-16T09:18:57;99554.50;;;15.34;53.88
64628;BME280;59036;50.960;0.314;2022-10-16T09:21:30;99562.75;;;15.46;52.18
64628;BME280;59036;50.960;0.314;2022-10-16T09:23:59;99570.70;;;15.51;52.60
64628;BME280;59036;50.960;0.314;2022-10-16T09:26:30;99573.90;;;15.70;53.01
64628;BME280;59036;50.960;0.314;2022-10-16T09:28:57;99573.90;;;15.58;52.02
64628;BME280;59036;50.960;0.314;2022-10-16T09:31:25;99577.30;;;15.16;53.41
64628;BME280;59036;50.960;0.314;2022-10-16T09:33:57;99576.41;;;15.65;52.14
64628;BME280;59036;50.960;0.314;2022-10-16T09:36:26;99573.27;;;15.99;52.22
64628;BME280;59036;50.960;0.314;2022-10-16T09:39:04;99571.12;;;15.81;51.22
64628;BME280;59036;50.960;0.314;2022-10-16T09:41:34;99572.33;;;15.65;52.15
64628;BME280;59036;50.960;0.314;2022-10-16T09:44:04;99581.19;;;16.73;50.44
64628;BME280;59036;50.960;0.314;2022-10-16T09:46:35;99586.51;;;17.04;52.13
64628;BME280;59036;50.960;0.314;2022-10-16T09:49:16;99587.36;;;16.53;48.89
64628;BME280;59036;50.960;0.314;2022-10-16T09:51:46;99590.12;;;17.20;50.97
64628;BME280;59036;50.960;0.314;2022-10-16T09:54:15;99593.09;;;16.16;52.48
64628;BME280;59036;50.960;0.314;2022-10-16T09:56:43;99593.23;;;16.98;52.94
64628;BME280;59036;50.960;0.314;2022-10-16T09:59:13;99595.58;;;15.94;52.57
64628;BME280;59036;50.960;0.314;2022-10-16T10:01:43;99595.25;;;16.50;54.17
64628;BME280;59036;50.960;0.314;2022-10-16T10:04:11;99592.86;;;17.18;51.90
64628;BME280;59036;50.960;0.314;2022-10-16T10:06:43;99596.91;;;15.79;54.76
64628;BME280;59036;50.960;0.314;2022-10-16T10:09:18;99594.63;;;15.82;55.04
64628;BME280;59036;50.960;0.314;2022-10-16T10:11:50;99597.29;;;15.34;55.50
64628;BME280;59036;50.960;0.314;2022-10-16T10:14:21;99591.85;;;15.75;54.40
64628;BME280;59036;50.960;0.314;2022-10-16T10:16:50;99594.91;;;15.18;57.29
64628;BME280;59036;50.960;0.314;2022-10-16T10:19:19;99598.12;;;15.26;57.65
64628;BME280;59036;50.960;0.314;2022-10-16T10:21:47;99599.67;;;14.67;57.46
64628;BME280;59036;50.960;0.314;2022-10-16T10:24:16;99601.20;;;15.36;57.41
64628;BME280;59036;50.960;0.314;2022-10-16T10:26:50;99610.94;;;14.19;60.43
64628;BME280;59036;50.960;0.314;2022-10-16T10:29:26;99612.43;;;14.24;62.09
64628;BME280;59036;50.960;0.314;2022-10-16T10:32:05;99610.39;;;14.00;61.63
64628;BME280;59036;50.960;0.314;2022-10-16T10:34:45;99610.78;;;13.97;62.17
64628;BME280;59036;50.960;0.314;2022-10-16T10:37:30;99607.14;;;14.66;60.98
64628;BME280;59036;50.960;0.314;2022-10-16T10:40:09;99608.39;;;14.52;61.41
64628;BME280;59036;50.960;0.314;2022-10-16T10:42:47;99599.63;;;14.64;59.85
64628;BME280;59036;50.960;0.314;2022-10-16T10:45:24;99598.33;;;14.66;59.92
64628;BME280;59036;50.960;0.314;2022-10-16T10:48:03;99602.69;;;14.45;59.13
64628;BME280;59036;50.960;0.314;2022-10-16T10:50:41;99602.99;;;14.48;59.19
64628;BME280;59036;50.960;0.314;2022-10-16T10:53:24;99602.19;;;14.36;60.03
64628;BME280;59036;50.960;0.314;2022-10-16T10:55:57;99606.39;;;14.39;60.26
64628;BME280;59036;50.960;0.314;2022-10-16T10:58:40;99603.13;;;15.04;59.29
64628;BME280;59036;50.960;0.314;2022-10-16T11:01:12;99601.70;;;14.46;60.76
64628;BME280;59036;50.960;0.314;2022-10-16T11:03:51;99609.47;;;14.26;62.54
64628;BME280;59036;50.960;0.314;2022-10-16T11:06:26;99613.05;;;14.38;62.79
64628;BME280;59036;50.960;0.314;2022-10-16T11:08:59;99615.69;;;13.36;66.93
64628;BME280;59036;50.960;0.314;2022-10-16T11:11:32;99616.66;;;13.16;68.22
64628;BME280;59036;50.960;0.314;2022-10-16T11:14:06;99619.64;;;13.35;68.83
64628;BME280;59036;50.960;0.314;2022-10-16T11:16:41;99618.79;;;13.08;69.82
64628;BME280;59036;50.960;0.314;2022-10-16T11:19:14;99612.89;;;12.20;69.49
64628;BME280;59036;50.960;0.314;2022-10-16T11:21:54;99616.29;;;12.89;68.57
64628;BME280;59036;50.960;0.314;2022-10-16T11:24:35;99618.33;;;13.03;69.10
64628;BME280;59036;50.960;0.314;2022-10-16T11:27:08;99613.62;;;13.31;69.49
64628;BME280;59036;50.960;0.314;2022-10-16T11:29:44;99614.48;;;12.87;69.91
64628;BME280;59036;50.960;0.314;2022-10-16T11:32:21;99612.62;;;13.28;69.23
64628;BME280;59036;50.960;0.314;2022-10-16T11:34:53;99611.27;;;13.43;69.40
64628;BME280;59036;50.960;0.314;2022-10-16T11:37:27;99608.27;;;13.80;67.37
64628;BME280;59036;50.960;0.314;2022-10-16T11:40:03;99608.11;;;13.34;69.12
64628;BME280;59036;50.960;0.314;2022-10-16T11:42:38;99606.08;;;12.85;71.47
64628;BME280;59036;50.960;0.314;2022-10-16T11:45:13;99607.17;;;13.53;69.43
64628;BME280;59036;50.960;0.314;2022-10-16T11:47:53;99613.45;;;13.67;68.51
64628;BME280;59036;50.960;0.314;2022-10-16T11:50:26;99613.52;;;13.31;70.50
64628;BME280;59036;50.960;0.314;2022-10-16T11:53:01;99614.80;;;13.13;72.44
64628;BME280;59036;50.960;0.314;2022-10-16T11:55:34;99616.55;;;12.76;73.06
64628;BME280;59036;50.960;0.314;2022-10-16T11:58:05;99605.27;;;12.26;76.36
64628;BME280;59036;50.960;0.314;2022-10-16T12:00:39;99603.46;;;12.40;74.21
64628;BME280;59036;50.960;0.314;2022-10-16T12:03:15;99600.97;;;13.34;71.50
64628;BME280;59036;50.960;0.314;2022-10-16T12:05:57;99593.73;;;13.54;70.72
64628;BME280;59036;50.960;0.314;2022-10-16T12:08:26;99586.88;;;13.18;72.96
64628;BME280;59036;50.960;0.314;2022-10-16T12:11:06;99584.63;;;13.32;70.15
64628;BME280;59036;50.960;0.314;2022-10-16T12:13:36;99586.95;;;13.46;71.06
64628;BME280;59036;50.960;0.314;2022-10-16T12:16:18;99586.65;;;13.82;70.53
64628;BME280;59036;50.960;0.314;2022-10-16T12:18:48;99581.94;;;13.99;69.73
64628;BME280;59036;50.960;0.314;2022-10-16T12:21:17;99578.23;;;13.42;69.84
64628;BME280;59036;50.960;0.314;2022-10-16T12:23:54;99576.88;;;13.72;69.39
64628;BME280;59036;50.960;0.314;2022-10-16T12:26:25;99584.55;;;13.76;69.14
64628;BME280;59036;50.960;0.314;2022-10-16T12:28:54;99581.22;;;14.50;68.78
64628;BME280;59036;50.960;0.314;2022-10-16T12:31:22;99575.01;;;14.30;67.36
64628;BME280;59036;50.960;0.314;2022-10-16T12:33:58;99572.52;;;14.47;67.15
64628;BME280;59036;50.960;0.314;2022-10-16T12:36:29;99572.49;;;14.26;67.68
64628;BME280;59036;50.960;0.314;2022-10-16T12:38:57;99570.18;;;14.33;67.64
64628;BME280;59036;50.960;0.314;2022-10-16T12:41:27;99568.00;;;14.42;66.51
64628;BME280;59036;50.960;0.314;2022-10-16T12:43:57;99579.47;;;14.11;67.82
64628;BME280;59036;50.960;0.314;2022-10-16T12:46:37;99584.12;;;14.00;67.64
64628;BME280;59036;50.960;0.314;2022-10-16T12:49:29;99582.85;;;14.25;67.58
64628;BME280;59036;50.960;0.314;2022-10-16T12:51:58;99587.50;;;13.81;68.08
64628;BME280;59036;50.960;0.314;2022-10-16T12:54:28;99582.10;;;14.33;67.41
64628;BME280;59036;50.960;0.314;2022-10-16T12:57:08;99583.03;;;13.97;68.67
64628;BME280;59036;50.960;0.314;2022-10-16T12:59:45;99577.71;;;14.78;65.65
64628;BME280;59036;50.960;0.314;2022-10-16T13:02:39;99577.79;;;15.09;65.73
64628;BME280;59036;50.960;0.314;2022-10-16T13:05:21;99574.62;;;13.51;69.34
64628;BME280;59036;50.960;0.314;2022-10-16T13:07:59;99568.86;;;13.77;68.88
64628;BME280;59036;50.960;0.314;2022-10-16T13:10:38;99564.91;;;13.91;69.79
64628;BME280;59036;50.960;0.314;2022-10-16T13:13:19;99561.70;;;13.08;72.16
64628;BME280;59036;50.960;0.314;2022-10-16T13:15:56;99562.16;;;13.69;71.25
64628;BME280;59036;50.960;0.314;2022-10-16T13:18:29;99558.74;;;13.61;72.56
64628;BME280;59036;50.960;0.314;2022-10-16T13:21:08;99564.10;;;13.54;73.42